Time;durP1;ratioP1;P1;durP2;ratioP2;P2;SDS_P1;SDS_P2;PMS_P1;PMS_P2;Temp;Humidity;BMP_temperature;BMP_pressure;BME280_temperature;BME280_humidity;BME280_pressure;Samples;Min_cycle;Max_cycle;Signal;HPM_P1;HPM_P2
2022/01/01 00:01:34;;;;;;;108.63;54.42;;;;;;;10.01;98.55;102426.28;5038674;28;20096;-83
2022/01/01 00:03:59;;;;;;;111.13;56.75;;;;;;;10.01;98.68;102418.44;5020408;28;20060;-83
2022/01/01 00:06:25;;;;;;;140.68;74.10;;;;;;;9.99;98.62;102414.06;5017610;28;20056;-83
2022/01/01 00:08:50;;;;;;;126.10;60.92;;;;;;;9.99;98.85;102403.59;5008192;28;20040;-83
2022/01/01 00:11:16;;;;;;;115.65;59.72;;;;;;;10.01;98.61;102400.13;5038773;28;20046;-83
2022/01/01 00:13:41;;;;;;;112.13;59.28;;;;;;;10.00;98.85;102388.75;5004235;28;20050;-83
2022/01/01 00:16:09;;;;;;;94.13;50.53;;;;;;;10.01;98.96;102384.41;5020739;28;20041;-83
2022/01/01 00:18:39;;;;;;;133.63;62.03;;;;;;;10.00;98.81;102386.13;5021251;28;20060;-83
2022/01/01 00:21:05;;;;;;;110.30;55.55;;;;;;;9.99;99.05;102377.44;5001031;28;20281;-83
2022/01/01 00:23:30;;;;;;;114.80;56.00;;;;;;;9.99;98.77;102373.97;5002357;28;20048;-83
2022/01/01 00:25:56;;;;;;;123.03;56.95;;;;;;;10.00;99.10;102378.28;5020350;28;20033;-83
2022/01/01 00:28:21;;;;;;;113.10;57.30;;;;;;;9.99;98.92;102382.66;5038345;28;20734;-83
2022/01/01 00:30:46;;;;;;;127.57;60.85;;;;;;;9.99;99.20;102387.91;5037946;28;20350;-83
2022/01/01 00:33:12;;;;;;;111.45;56.67;;;;;;;9.99;98.99;102395.75;5003969;28;20077;-83
2022/01/01 00:35:38;;;;;;;117.18;56.63;;;;;;;9.99;99.01;102392.28;5001218;28;20367;-83
2022/01/01 00:38:03;;;;;;;117.38;55.97;;;;;;;9.99;99.00;102405.38;5001195;28;20117;-83
2022/01/01 00:40:29;;;;;;;117.75;54.42;;;;;;;9.99;99.01;102401.00;4984677;28;20049;-82
2022/01/01 00:42:54;;;;;;;115.95;53.20;;;;;;;9.98;99.01;102396.63;5018483;28;20040;-82
2022/01/01 00:45:19;;;;;;;111.80;53.30;;;;;;;9.98;98.92;102395.75;5001480;28;20337;-83
2022/01/01 00:47:45;;;;;;;100.88;46.55;;;;;;;9.97;98.89;102396.66;5018768;28;20030;-83
2022/01/01 00:50:11;;;;;;;99.90;44.10;;;;;;;9.97;98.98;102388.81;4984699;28;20025;-82
2022/01/01 00:52:36;;;;;;;106.20;48.33;;;;;;;9.95;98.97;102391.44;5001504;28;20069;-83
2022/01/01 00:55:02;;;;;;;105.45;39.50;;;;;;;9.96;99.12;102387.94;5018174;28;20321;-83
2022/01/01 00:57:27;;;;;;;89.50;38.72;;;;;;;9.96;98.88;102394.94;5000547;28;20308;-83
2022/01/01 00:59:53;;;;;;;99.75;39.42;;;;;;;9.96;98.95;102402.78;5001029;28;20053;-83
2022/01/01 01:02:18;;;;;;;93.45;40.33;;;;;;;9.95;99.14;102404.53;5018405;28;20153;-84
2022/01/01 01:04:43;;;;;;;95.00;40.13;;;;;;;9.97;98.90;102420.22;5023037;28;20386;-83
2022/01/01 01:07:12;;;;;;;77.80;30.95;;;;;;;9.99;99.21;102423.69;5016710;28;20056;-83
2022/01/01 01:09:37;;;;;;;80.78;30.35;;;;;;;10.00;99.03;102412.31;5021199;28;20360;-84
2022/01/01 01:12:03;;;;;;;66.78;28.00;;;;;;;10.02;99.07;102417.53;5020132;28;20047;-83
2022/01/01 01:14:39;;;;;;;58.85;21.50;;;;;;;10.06;99.02;102424.44;5018593;28;20149;-84
2022/01/01 01:17:04;;;;;;;41.45;18.58;;;;;;;10.08;99.21;102422.72;5030075;28;20068;-82
2022/01/01 01:19:29;;;;;;;51.33;17.55;;;;;;;10.12;99.53;102421.78;5008736;28;20346;-83
2022/01/01 01:21:55;;;;;;;45.25;17.17;;;;;;;10.15;99.23;102425.22;5024577;28;20052;-83
2022/01/01 01:24:23;;;;;;;63.45;17.40;;;;;;;10.20;99.61;102422.50;5020969;28;20035;-84
2022/01/01 01:26:50;;;;;;;44.00;16.85;;;;;;;10.24;99.79;102423.34;5037561;28;20061;-83
2022/01/01 01:29:16;;;;;;;32.85;13.68;;;;;;;10.26;99.96;102434.66;5005075;28;20031;-84
2022/01/01 01:31:41;;;;;;;47.25;15.60;;;;;;;10.32;100.00;102432.00;5031347;28;20034;-83
2022/01/01 01:34:07;;;;;;;48.50;15.52;;;;;;;10.37;100.00;102438.91;5028698;28;20048;-83
2022/01/01 01:36:32;;;;;;;39.83;13.05;;;;;;;10.42;100.00;102432.72;5034812;28;20068;-83
2022/01/01 01:38:58;;;;;;;45.33;12.25;;;;;;;10.46;100.00;102421.31;5004361;28;20041;-83
2022/01/01 01:41:23;;;;;;;38.75;12.27;;;;;;;10.49;100.00;102419.50;5023033;28;20036;-84
2022/01/01 01:43:52;;;;;;;39.00;11.73;;;;;;;10.52;100.00;102422.09;5018874;28;20041;-84
2022/01/01 01:46:17;;;;;;;30.45;9.75;;;;;;;10.54;100.00;102416.84;5041400;28;20045;-85
2022/01/01 01:48:44;;;;;;;34.00;11.02;;;;;;;10.53;100.00;102415.97;4996257;28;20361;-84
2022/01/01 01:51:10;;;;;;;41.65;11.50;;;;;;;10.54;100.00;102415.06;5007279;28;20071;-84
2022/01/01 01:53:35;;;;;;;36.13;10.82;;;;;;;10.54;100.00;102422.94;4990873;28;20255;-84
2022/01/01 01:56:01;;;;;;;39.92;10.73;;;;;;;10.53;100.00;102421.22;5039373;28;20037;-84
2022/01/01 01:58:29;;;;;;;25.50;10.13;;;;;;;10.54;100.00;102416.84;5004828;28;20030;-84
2022/01/01 02:03:35;;;;;;;39.97;13.60;;;;;;;10.55;100.00;102410.69;5040148;28;20037;-84
2022/01/01 02:06:01;;;;;;;42.70;13.35;;;;;;;10.55;100.00;102406.34;4993971;28;20140;-84
2022/01/01 02:08:27;;;;;;;34.55;13.30;;;;;;;10.57;100.00;102406.31;5003146;28;20034;-84
2022/01/01 02:10:53;;;;;;;25.95;11.77;;;;;;;10.58;100.00;102400.16;5005134;28;20091;-84
2022/01/01 02:13:26;;;;;;;38.60;13.63;;;;;;;10.57;100.00;102396.69;5023074;28;20288;-84
2022/01/01 02:18:17;;;;;;;29.13;10.95;;;;;;;10.56;100.00;102389.72;5022732;28;20229;-84
2022/01/01 02:20:49;;;;;;;49.92;15.20;;;;;;;10.57;100.00;102386.22;5006034;28;20045;-83
2022/01/01 02:23:15;;;;;;;40.85;14.65;;;;;;;10.59;100.00;102382.69;5002389;28;20044;-84
2022/01/01 02:25:41;;;;;;;46.47;15.82;;;;;;;10.58;100.00;102387.06;5003310;28;20072;-84
2022/01/01 02:28:06;;;;;;;42.92;16.38;;;;;;;10.57;100.00;102380.97;5019804;28;20104;-84
2022/01/01 02:30:32;;;;;;;40.55;15.68;;;;;;;10.60;100.00;102385.28;5017034;28;20101;-84
2022/01/01 02:32:58;;;;;;;49.20;18.40;;;;;;;10.60;100.00;102389.66;5019208;28;20045;-84
2022/01/01 02:35:23;;;;;;;41.40;17.13;;;;;;;10.61;100.00;102397.50;5007088;28;20099;-83
2022/01/01 02:37:49;;;;;;;56.55;20.35;;;;;;;10.61;100.00;102396.66;5015432;28;20033;-84
2022/01/01 02:40:15;;;;;;;39.08;16.42;;;;;;;10.62;100.00;102393.13;5017210;28;20049;-84
2022/01/01 02:42:42;;;;;;;35.75;16.95;;;;;;;10.64;100.00;102399.19;5006851;28;20034;-84
2022/01/01 02:45:09;;;;;;;50.72;20.73;;;;;;;10.65;100.00;102399.19;5020751;28;20049;-85
2022/01/01 02:47:35;;;;;;;43.28;19.80;;;;;;;10.66;100.00;102402.66;5024193;28;20356;-83
2022/01/01 02:50:00;;;;;;;50.63;20.60;;;;;;;10.66;99.91;102394.78;5006349;28;20029;-84
2022/01/01 02:52:26;;;;;;;33.28;16.45;;;;;;;10.67;100.00;102397.41;4987877;28;20045;-85
2022/01/01 02:54:51;;;;;;;36.67;16.52;;;;;;;10.68;100.00;102406.16;4984927;28;20060;-84
2022/01/01 02:57:17;;;;;;;43.47;17.80;;;;;;;10.69;100.00;102398.22;5054098;28;20033;-83
2022/01/01 02:59:43;;;;;;;42.05;17.15;;;;;;;10.71;100.00;102404.34;5011058;28;20037;-83
2022/01/01 03:02:08;;;;;;;36.50;16.13;;;;;;;10.71;100.00;102404.34;5019904;28;20505;-84
2022/01/01 03:04:34;;;;;;;34.78;14.73;;;;;;;10.72;99.52;102394.72;5023496;28;20442;-84
2022/01/01 03:07:00;;;;;;;35.47;14.80;;;;;;;10.74;100.00;102403.41;5041483;28;20037;-84
2022/01/01 03:09:33;;;;;;;36.67;14.90;;;;;;;10.75;100.00;102403.41;5031007;28;20053;-84
2022/01/01 03:11:58;;;;;;;36.08;15.32;;;;;;;10.75;99.86;102398.16;5017667;28;20041;-84
2022/01/01 03:14:23;;;;;;;46.05;16.00;;;;;;;10.76;100.00;102405.09;5041225;28;20033;-83
2022/01/01 03:16:49;;;;;;;34.80;15.25;;;;;;;10.76;99.83;102392.00;5041272;28;20592;-84
2022/01/01 03:19:14;;;;;;;37.55;15.20;;;;;;;10.77;99.90;102390.28;5023554;28;20049;-83
2022/01/01 03:21:40;;;;;;;38.13;14.40;;;;;;;10.76;99.85;102384.13;5023714;28;20071;-84
2022/01/01 03:24:06;;;;;;;38.58;14.65;;;;;;;10.78;99.81;102391.97;5006531;28;20041;-84
2022/01/01 03:26:31;;;;;;;39.95;14.93;;;;;;;10.78;99.86;102384.13;4990453;28;20124;-84
2022/01/01 03:28:56;;;;;;;42.63;14.95;;;;;;;10.77;99.82;102382.41;5022798;28;20072;-83
2022/01/01 03:31:24;;;;;;;46.53;16.17;;;;;;;10.73;99.63;102375.47;5023407;28;20039;-84
2022/01/01 03:33:50;;;;;;;31.25;14.73;;;;;;;10.74;99.84;102379.84;5023188;28;20041;-84
2022/01/01 03:36:15;;;;;;;38.40;14.57;;;;;;;10.72;99.81;102376.38;5023301;28;20052;-84
2022/01/01 03:38:41;;;;;;;39.65;14.70;;;;;;;10.70;99.71;102373.78;5022798;28;20373;-84
2022/01/01 03:41:06;;;;;;;39.85;15.20;;;;;;;10.67;99.54;102381.69;5023031;28;20662;-84
2022/01/01 03:43:32;;;;;;;43.60;15.63;;;;;;;10.67;99.45;102388.69;4990788;28;20029;-83
2022/01/01 03:45:57;;;;;;;35.53;14.82;;;;;;;10.65;99.47;102378.22;5022736;28;20366;-84
2022/01/01 03:48:23;;;;;;;37.45;15.27;;;;;;;10.63;99.30;102376.53;5022870;28;20052;-84
2022/01/01 03:50:48;;;;;;;39.08;14.70;;;;;;;10.62;99.42;102382.66;5039722;28;20084;-83
2022/01/01 03:53:14;;;;;;;40.60;15.05;;;;;;;10.59;99.40;102380.94;5040352;28;20332;-83
2022/01/01 03:55:39;;;;;;;33.20;14.65;;;;;;;10.59;98.91;102385.31;5022039;28;20052;-84
2022/01/01 03:58:04;;;;;;;41.45;16.52;;;;;;;10.56;98.95;102378.38;5023303;28;20041;-84
2022/01/01 04:00:30;;;;;;;39.55;15.50;;;;;;;10.54;99.13;102378.38;5040268;28;20390;-83
2022/01/01 04:03:04;;;;;;;31.75;14.55;;;;;;;10.55;99.02;102385.38;5022860;28;20037;-84
2022/01/01 04:05:30;;;;;;;28.80;14.60;;;;;;;10.53;99.29;102389.78;4991093;28;20136;-84
2022/01/01 04:07:56;;;;;;;25.10;12.55;;;;;;;10.54;99.41;102394.09;5040577;28;20045;-84
2022/01/01 04:10:21;;;;;;;29.83;14.70;;;;;;;10.55;99.23;102394.97;5022851;28;20230;-84
2022/01/01 04:12:46;;;;;;;31.90;14.88;;;;;;;10.55;99.39;102394.97;5004723;28;20348;-83
2022/01/01 04:15:12;;;;;;;34.33;14.10;;;;;;;10.54;99.23;102391.50;5022703;28;20048;-83
2022/01/01 04:17:38;;;;;;;45.08;16.52;;;;;;;10.54;99.25;102396.72;5022259;28;20048;-84
2022/01/01 04:20:04;;;;;;;30.42;12.95;;;;;;;10.55;99.19;102390.63;5022744;28;20044;-83
2022/01/01 04:22:30;;;;;;;32.80;14.15;;;;;;;10.55;99.43;102389.72;5022984;28;20037;-84
2022/01/01 04:24:56;;;;;;;33.05;14.35;;;;;;;10.55;99.42;102380.13;5005938;28;20119;-83
2022/01/01 04:27:21;;;;;;;29.67;13.02;;;;;;;10.55;99.44;102388.00;5040439;28;20109;-84
2022/01/01 04:29:47;;;;;;;27.88;12.02;;;;;;;10.55;99.23;102390.63;5006966;28;20028;-84
2022/01/01 04:32:14;;;;;;;34.88;13.57;;;;;;;10.57;99.16;102395.84;5022563;28;20033;-84
2022/01/01 04:34:39;;;;;;;28.77;12.52;;;;;;;10.57;99.38;102401.06;5022613;28;20033;-83
2022/01/01 04:37:11;;;;;;;29.17;13.27;;;;;;;10.56;99.34;102402.81;5021843;28;20056;-84
2022/01/01 04:39:37;;;;;;;28.90;12.35;;;;;;;10.57;99.15;102404.56;5023366;28;20030;-83
2022/01/01 04:42:02;;;;;;;26.90;11.85;;;;;;;10.58;99.13;102408.03;4986385;28;20021;-84
2022/01/01 04:44:28;;;;;;;26.20;11.15;;;;;;;10.59;99.35;102407.16;5018323;28;20045;-84
2022/01/01 04:46:53;;;;;;;30.85;11.75;;;;;;;10.59;99.01;102403.66;5022332;28;20040;-84
2022/01/01 04:49:19;;;;;;;23.70;11.15;;;;;;;10.60;99.04;102414.09;4989081;28;20032;-84
2022/01/01 04:51:44;;;;;;;33.25;11.35;;;;;;;10.60;98.97;102410.63;5041435;28;20021;-84
2022/01/01 04:54:15;;;;;;;22.25;10.77;;;;;;;10.60;98.95;102414.09;5026260;28;20052;-83
2022/01/01 04:56:44;;;;;;;19.60;9.45;;;;;;;10.61;98.87;102417.63;5011176;28;20041;-83
2022/01/01 04:59:10;;;;;;;21.75;9.82;;;;;;;10.61;98.90;102415.84;5026246;28;20087;-84
2022/01/01 05:01:36;;;;;;;25.85;10.18;;;;;;;10.61;98.96;102412.38;5025821;28;20033;-83
2022/01/01 05:04:01;;;;;;;21.17;9.15;;;;;;;10.61;98.87;102400.13;4993202;28;20227;-84
2022/01/01 05:06:27;;;;;;;24.75;9.23;;;;;;;10.61;99.01;102394.03;5026366;28;20037;-83
2022/01/01 05:08:52;;;;;;;22.10;10.00;;;;;;;10.62;99.02;102393.13;5025387;28;20068;-83
2022/01/01 05:11:18;;;;;;;22.50;10.13;;;;;;;10.60;98.70;102384.44;5044131;28;20037;-84
2022/01/01 05:13:43;;;;;;;20.27;9.45;;;;;;;10.62;99.01;102396.59;5026103;28;20041;-84
2022/01/01 05:16:14;;;;;;;26.42;9.38;;;;;;;10.62;99.00;102398.38;5025695;28;20041;-83
2022/01/01 05:18:39;;;;;;;21.88;10.07;;;;;;;10.61;98.77;102384.41;5026413;28;20029;-84
2022/01/01 05:21:05;;;;;;;23.52;9.02;;;;;;;10.63;98.61;102381.78;4993178;28;20033;-84
2022/01/01 05:23:30;;;;;;;20.75;9.02;;;;;;;10.62;99.00;102387.88;5025906;28;20087;-83
2022/01/01 05:25:56;;;;;;;20.98;9.35;;;;;;;10.62;98.82;102390.50;5024436;28;20029;-84
2022/01/01 05:28:23;;;;;;;29.10;10.30;;;;;;;10.59;98.87;102383.56;5025838;28;20057;-83
2022/01/01 05:30:48;;;;;;;20.05;9.10;;;;;;;10.60;98.49;102389.66;5025293;28;20064;-84
2022/01/01 05:33:15;;;;;;;22.73;9.77;;;;;;;10.59;98.54;102382.69;5025931;28;20336;-84
2022/01/01 05:35:41;;;;;;;24.73;9.23;;;;;;;10.57;98.57;102367.88;5042657;28;20049;-83
2022/01/01 05:38:06;;;;;;;23.85;8.68;;;;;;;10.58;98.63;102368.72;5043314;28;20243;-84
2022/01/01 05:40:31;;;;;;;20.38;9.40;;;;;;;10.57;98.50;102367.03;5008479;28;20034;-84
2022/01/01 05:42:57;;;;;;;19.17;8.88;;;;;;;10.57;98.35;102359.16;5008978;28;20216;-83
2022/01/01 05:45:22;;;;;;;16.58;8.50;;;;;;;10.56;98.48;102363.50;5023658;28;20025;-84
2022/01/01 05:47:48;;;;;;;20.92;8.30;;;;;;;10.55;98.16;102367.03;4978535;28;20080;-84
2022/01/01 05:50:13;;;;;;;24.52;9.07;;;;;;;10.55;98.17;102371.38;5009243;28;20071;-83
2022/01/01 05:52:38;;;;;;;17.23;8.23;;;;;;;10.53;98.17;102370.56;5042596;28;20115;-83
2022/01/01 05:55:05;;;;;;;20.83;8.02;;;;;;;10.53;98.36;102381.03;5008082;28;20108;-84
2022/01/01 05:57:30;;;;;;;19.85;7.80;;;;;;;10.53;98.20;102378.41;5025128;28;20271;-83
2022/01/01 05:59:55;;;;;;;17.80;7.40;;;;;;;10.51;98.03;102391.56;5008779;28;20076;-84
2022/01/01 06:02:21;;;;;;;19.33;8.35;;;;;;;10.50;98.30;102391.59;4991101;28;20045;-83
2022/01/01 06:04:46;;;;;;;19.30;7.50;;;;;;;10.50;97.95;102381.09;5008501;28;20033;-83
2022/01/01 06:07:12;;;;;;;17.60;7.55;;;;;;;10.50;98.22;102394.19;5024433;28;20045;-84
2022/01/01 06:09:37;;;;;;;23.73;8.40;;;;;;;10.49;98.29;102390.69;5008189;28;20237;-84
2022/01/01 06:12:03;;;;;;;18.38;7.07;;;;;;;10.49;98.01;102392.47;5024897;28;20057;-84
2022/01/01 06:14:28;;;;;;;16.35;6.93;;;;;;;10.50;98.39;102396.81;5008622;28;20041;-84
2022/01/01 06:16:54;;;;;;;17.85;6.63;;;;;;;10.49;98.05;102392.47;5042285;28;20037;-84
2022/01/01 06:19:19;;;;;;;17.48;7.00;;;;;;;10.49;98.34;102402.94;5006069;28;20048;-83
2022/01/01 06:21:45;;;;;;;13.18;6.70;;;;;;;10.49;98.37;102395.06;5008225;28;20052;-83
2022/01/01 06:24:10;;;;;;;22.40;7.43;;;;;;;10.48;98.19;102393.38;5024189;28;20033;-84
2022/01/01 06:26:35;;;;;;;20.77;6.57;;;;;;;10.47;98.08;102397.72;5007464;28;20067;-84
2022/01/01 06:29:01;;;;;;;15.05;7.13;;;;;;;10.49;98.11;102398.56;5042169;28;20105;-84
2022/01/01 06:31:28;;;;;;;12.55;6.30;;;;;;;10.47;98.36;102395.09;5008564;28;20041;-84
2022/01/01 06:33:53;;;;;;;16.90;7.60;;;;;;;10.48;98.34;102395.97;5037978;28;20053;-83
2022/01/01 06:36:19;;;;;;;10.63;6.53;;;;;;;10.48;97.96;102402.06;5022557;28;20037;-84
2022/01/01 06:38:45;;;;;;;17.48;7.45;;;;;;;10.48;98.49;102403.84;5042142;28;20055;-84
2022/01/01 06:41:11;;;;;;;20.55;7.57;;;;;;;10.47;98.03;102397.72;5005600;28;20029;-83
2022/01/01 06:43:36;;;;;;;15.77;7.15;;;;;;;10.47;98.06;102400.34;4984363;28;20042;-84
2022/01/01 06:46:01;;;;;;;18.20;8.02;;;;;;;10.48;98.00;102395.97;5007322;28;20090;-83
2022/01/01 06:48:27;;;;;;;20.17;8.05;;;;;;;10.47;97.92;102396.84;4991249;28;20021;-83
2022/01/01 06:50:54;;;;;;;19.02;9.02;;;;;;;10.47;98.05;102396.84;5024101;28;20419;-83
2022/01/01 06:53:19;;;;;;;16.52;8.73;;;;;;;10.46;97.79;102393.38;5007581;28;20135;-84
2022/01/01 06:55:45;;;;;;;18.13;8.38;;;;;;;10.45;98.08;102402.13;5022746;28;20300;-83
2022/01/01 06:58:10;;;;;;;21.58;9.05;;;;;;;10.44;97.81;102397.78;5041331;28;20071;-84
2022/01/01 07:00:37;;;;;;;18.58;9.70;;;;;;;10.46;97.88;102400.34;5015594;28;20041;-83
2022/01/01 07:03:03;;;;;;;21.35;9.57;;;;;;;10.43;97.59;102398.66;5023708;28;20039;-83
2022/01/01 07:05:28;;;;;;;17.60;9.18;;;;;;;10.44;97.78;102397.78;5020159;28;20061;-83
2022/01/01 07:07:53;;;;;;;18.33;9.15;;;;;;;10.44;97.65;102394.28;5041048;28;20312;-84
2022/01/01 07:10:19;;;;;;;15.30;8.02;;;;;;;10.43;97.96;102389.94;5041656;28;20033;-83
2022/01/01 07:12:44;;;;;;;21.63;9.20;;;;;;;10.43;97.84;102393.41;5040657;28;20104;-84
2022/01/01 07:15:10;;;;;;;24.55;9.98;;;;;;;10.43;97.62;102384.72;5006535;28;20049;-83
2022/01/01 07:17:36;;;;;;;22.60;10.07;;;;;;;10.41;97.60;102382.09;4990346;28;20037;-84
2022/01/01 07:20:01;;;;;;;21.33;9.63;;;;;;;10.42;97.63;102394.28;5006765;28;20060;-84
2022/01/01 07:22:26;;;;;;;20.20;9.35;;;;;;;10.40;97.84;102396.06;5007496;28;20047;-83
2022/01/01 07:24:52;;;;;;;22.00;10.15;;;;;;;10.41;97.84;102402.19;5023289;28;20247;-83
2022/01/01 07:27:20;;;;;;;18.48;8.88;;;;;;;10.40;97.92;102409.16;5004839;28;20050;-84
2022/01/01 07:29:45;;;;;;;20.15;9.10;;;;;;;10.41;97.54;102412.69;4981340;28;20096;-84
2022/01/01 07:32:11;;;;;;;17.17;9.70;;;;;;;10.40;97.84;102414.41;5005569;28;20095;-84
2022/01/01 07:34:36;;;;;;;22.60;9.95;;;;;;;10.40;97.61;102417.03;5009239;28;20071;-83
2022/01/01 07:37:01;;;;;;;19.17;9.32;;;;;;;10.42;97.69;102417.00;5012628;28;20048;-84
2022/01/01 07:39:27;;;;;;;15.73;8.25;;;;;;;10.41;97.79;102420.53;5038916;28;20033;-84
2022/01/01 07:41:52;;;;;;;20.40;9.75;;;;;;;10.41;97.77;102413.53;5040747;28;20099;-83
2022/01/01 07:44:18;;;;;;;17.30;9.05;;;;;;;10.41;97.64;102429.25;5036638;28;20264;-83
2022/01/01 07:46:43;;;;;;;19.30;9.50;;;;;;;10.40;97.80;102422.25;5014095;28;20033;-84
2022/01/01 07:49:09;;;;;;;20.00;9.18;;;;;;;10.41;97.81;102424.00;5040741;28;20021;-84
2022/01/01 07:51:34;;;;;;;17.10;9.93;;;;;;;10.41;97.54;102428.38;5040699;28;20603;-83
2022/01/01 07:54:00;;;;;;;22.05;9.38;;;;;;;10.41;97.78;102425.78;5039506;28;20025;-84
2022/01/01 07:56:25;;;;;;;17.95;9.30;;;;;;;10.41;97.40;102420.53;5004408;28;20053;-84
2022/01/01 07:58:50;;;;;;;16.38;9.57;;;;;;;10.41;98.01;102417.91;4988897;28;20029;-84
2022/01/01 08:01:16;;;;;;;24.38;11.02;;;;;;;10.40;97.69;102405.69;5024457;28;20029;-84
2022/01/01 08:03:41;;;;;;;18.45;9.57;;;;;;;10.41;97.58;102402.19;5006377;28;20041;-84
2022/01/01 08:06:07;;;;;;;33.22;10.25;;;;;;;10.40;97.59;102403.94;5016953;28;20044;-84
2022/01/01 08:08:32;;;;;;;20.02;9.70;;;;;;;10.41;97.53;102421.38;4985869;28;20598;-84
2022/01/01 08:10:58;;;;;;;19.08;9.95;;;;;;;10.40;97.95;102422.25;5035410;28;20071;-84
2022/01/01 08:13:25;;;;;;;18.52;9.63;;;;;;;10.39;97.62;102420.56;5022478;28;20056;-84
2022/01/01 08:15:52;;;;;;;17.65;9.50;;;;;;;10.40;97.55;102422.25;5009120;28;20229;-84
2022/01/01 08:18:17;;;;;;;16.75;9.73;;;;;;;10.41;97.97;102420.53;5022014;28;20037;-84
2022/01/01 08:20:43;;;;;;;25.42;10.63;;;;;;;10.40;97.59;102424.03;4989215;28;20035;-84
2022/01/01 08:23:08;;;;;;;18.83;10.18;;;;;;;10.40;97.77;102430.13;4998520;28;20034;-84
2022/01/01 08:25:34;;;;;;;21.77;10.63;;;;;;;10.40;97.61;102439.75;5015874;28;20033;-84
2022/01/01 08:27:59;;;;;;;20.58;9.82;;;;;;;10.40;97.77;102440.59;5020201;28;20112;-84
2022/01/01 08:30:25;;;;;;;30.92;11.55;;;;;;;10.38;97.68;102430.13;5038090;28;20042;-83
2022/01/01 08:32:50;;;;;;;22.15;10.48;;;;;;;10.36;97.66;102418.81;5003820;28;20069;-84
2022/01/01 08:35:16;;;;;;;20.48;9.55;;;;;;;10.37;97.56;102414.47;5019859;28;20036;-83
2022/01/01 08:37:41;;;;;;;18.38;10.55;;;;;;;10.35;97.52;102408.38;5002660;28;20033;-84
2022/01/01 08:40:07;;;;;;;20.60;10.75;;;;;;;10.35;97.71;102405.75;5036943;28;20064;-84
2022/01/01 08:42:32;;;;;;;30.95;11.63;;;;;;;10.34;97.74;102404.03;4991423;28;20337;-83
2022/01/01 08:44:58;;;;;;;26.35;10.73;;;;;;;10.33;97.36;102399.66;5020741;28;20354;-83
2022/01/01 08:47:26;;;;;;;26.85;10.95;;;;;;;10.32;97.52;102400.56;5015007;28;20033;-84
2022/01/01 08:49:55;;;;;;;25.10;11.13;;;;;;;10.31;97.42;102397.06;5002337;28;20060;-83
2022/01/01 08:52:24;;;;;;;25.05;11.45;;;;;;;10.30;97.53;102382.22;5005507;28;20048;-84
2022/01/01 08:54:55;;;;;;;22.20;11.00;;;;;;;10.31;97.59;102383.13;4988510;28;20399;-84
2022/01/01 08:57:20;;;;;;;23.25;11.15;;;;;;;10.29;97.72;102383.09;5005516;28;20036;-84
2022/01/01 08:59:46;;;;;;;21.63;11.18;;;;;;;10.29;97.61;102390.97;5003438;28;20293;-83
2022/01/01 09:02:11;;;;;;;26.00;12.65;;;;;;;10.29;97.65;102392.72;5020199;28;20064;-84
2022/01/01 09:04:37;;;;;;;29.60;13.38;;;;;;;10.27;97.63;102384.88;5017298;28;20027;-83
2022/01/01 09:07:02;;;;;;;33.00;15.32;;;;;;;10.28;97.77;102385.78;5000680;28;20056;-83
2022/01/01 09:09:28;;;;;;;30.75;15.50;;;;;;;10.27;97.69;102377.03;5003854;28;20037;-83
2022/01/01 09:11:53;;;;;;;27.38;14.32;;;;;;;10.27;97.73;102381.41;5019667;28;20045;-84
2022/01/01 09:14:19;;;;;;;26.13;15.52;;;;;;;10.27;97.57;102381.41;5020302;28;20049;-84
2022/01/01 09:16:44;;;;;;;40.78;19.13;;;;;;;10.26;97.77;102388.41;5003932;28;20040;-84
2022/01/01 09:19:10;;;;;;;48.50;21.17;;;;;;;10.25;97.58;102388.44;4987457;28;20037;-83
2022/01/01 09:21:36;;;;;;;43.33;22.30;;;;;;;10.26;97.78;102374.44;5038008;28;20033;-84
2022/01/01 09:24:01;;;;;;;48.78;20.92;;;;;;;10.22;97.57;102371.00;5019944;28;20037;-83
2022/01/01 09:26:26;;;;;;;39.20;20.92;;;;;;;10.21;97.69;102357.94;5002919;28;20040;-83
2022/01/01 09:28:52;;;;;;;39.58;21.23;;;;;;;10.19;97.64;102357.97;5019995;28;20057;-84
2022/01/01 09:31:17;;;;;;;48.92;21.25;;;;;;;10.21;97.99;102350.09;5001340;28;20041;-85
2022/01/01 09:33:43;;;;;;;44.28;21.88;;;;;;;10.19;97.94;102347.50;5003887;28;20044;-85
2022/01/01 09:36:09;;;;;;;46.60;22.38;;;;;;;10.19;97.78;102339.63;4998943;28;20062;-85
2022/01/01 09:38:35;;;;;;;42.00;21.90;;;;;;;10.20;98.07;102346.59;5021359;28;20045;-85
2022/01/01 09:41:00;;;;;;;42.65;21.88;;;;;;;10.19;98.03;102355.34;4986775;28;20281;-85
2022/01/01 09:43:27;;;;;;;49.22;23.15;;;;;;;10.19;98.26;102345.72;5006547;28;20033;-84
2022/01/01 09:45:53;;;;;;;46.80;22.13;;;;;;;10.21;98.25;102342.25;4987494;28;20051;-84
2022/01/01 09:48:21;;;;;;;57.08;24.10;;;;;;;10.21;98.32;102337.00;5003809;28;20059;-85
2022/01/01 09:50:49;;;;;;;47.13;22.02;;;;;;;10.21;98.55;102343.09;5004869;28;20037;-84
2022/01/01 09:53:14;;;;;;;48.87;23.53;;;;;;;10.22;98.42;102336.94;5003384;28;20037;-85
2022/01/01 09:55:40;;;;;;;52.58;22.75;;;;;;;10.22;98.47;102342.19;5006250;28;20045;-85
2022/01/01 09:58:05;;;;;;;49.00;22.80;;;;;;;10.23;98.46;102346.56;5004153;28;20202;-84
2022/01/01 10:00:31;;;;;;;52.28;23.63;;;;;;;10.24;98.65;102334.31;5035066;28;20048;-84
2022/01/01 10:02:56;;;;;;;52.40;23.92;;;;;;;10.24;98.61;102339.56;5019750;28;20061;-84
2022/01/01 10:05:22;;;;;;;47.33;23.17;;;;;;;10.26;98.60;102345.63;5019637;28;20239;-84
2022/01/01 10:07:47;;;;;;;44.05;22.30;;;;;;;10.27;98.79;102344.75;5020788;28;20098;-84
2022/01/01 10:10:21;;;;;;;50.90;24.35;;;;;;;10.29;99.03;102337.72;5005971;28;20037;-85
2022/01/01 10:12:46;;;;;;;49.50;24.27;;;;;;;10.30;98.86;102337.72;5021280;28;20042;-84
2022/01/01 10:15:12;;;;;;;47.10;23.67;;;;;;;10.30;98.81;102337.72;5036602;28;20229;-85
2022/01/01 10:17:37;;;;;;;47.28;23.27;;;;;;;10.32;99.00;102343.81;5003852;28;20068;-84
2022/01/01 10:20:03;;;;;;;51.63;23.73;;;;;;;10.34;99.00;102339.41;5009090;28;20033;-84
2022/01/01 10:22:29;;;;;;;48.15;23.73;;;;;;;10.34;98.71;102328.09;5022464;28;20033;-84
2022/01/01 10:27:59;;;;;;;49.28;22.83;;;;;;;10.36;98.71;102339.41;5028361;28;20115;-84
2022/01/01 10:30:39;;;;;;;45.35;22.52;;;;;;;10.37;98.80;102336.75;5034095;28;20053;-84
2022/01/01 10:33:13;;;;;;;41.10;23.02;;;;;;;10.38;98.68;102335.00;5004979;28;20037;-85
2022/01/01 10:35:38;;;;;;;46.22;22.50;;;;;;;10.40;98.89;102334.97;5018336;28;20033;-85
2022/01/01 10:38:15;;;;;;;48.67;23.33;;;;;;;10.41;98.74;102337.59;5036349;28;20034;-85
2022/01/01 10:40:40;;;;;;;40.42;21.27;;;;;;;10.44;99.01;102326.19;5004577;28;20064;-85
2022/01/01 10:43:06;;;;;;;45.15;22.20;;;;;;;10.45;98.80;102330.53;5022021;28;20044;-85
2022/01/01 10:45:34;;;;;;;42.65;21.70;;;;;;;10.47;98.86;102323.50;5022179;28;20045;-85
2022/01/01 10:48:28;;;;;;;42.25;21.05;;;;;;;10.50;98.77;102326.94;5022731;28;20904;-85
2022/01/01 10:50:54;;;;;;;49.10;22.13;;;;;;;10.53;99.14;102326.91;5008804;28;20045;-84
2022/01/01 10:53:24;;;;;;;37.20;18.77;;;;;;;10.56;99.23;102339.06;5006884;28;20066;-85
2022/01/01 10:55:51;;;;;;;38.65;19.73;;;;;;;10.57;99.13;102325.97;5020684;28;20057;-84
2022/01/01 10:58:22;;;;;;;39.83;19.60;;;;;;;10.60;98.89;102326.78;5006071;28;20033;-85
2022/01/01 11:00:47;;;;;;;38.00;20.13;;;;;;;10.62;99.16;102320.63;5001376;28;20074;-83
2022/01/01 11:03:17;;;;;;;32.75;18.10;;;;;;;10.65;98.86;102324.97;5018570;28;20041;-85
2022/01/01 11:05:43;;;;;;;36.45;17.85;;;;;;;10.68;99.08;102324.91;5006025;28;20112;-84
2022/01/01 11:08:09;;;;;;;31.88;16.45;;;;;;;10.69;98.80;102319.63;5017545;28;20044;-83
2022/01/01 11:10:35;;;;;;;37.28;18.65;;;;;;;10.72;98.79;102318.72;4988486;28;20033;-83
2022/01/01 11:13:01;;;;;;;32.92;16.92;;;;;;;10.75;99.02;102322.16;4982661;28;20344;-82